sensor_id;sensor_type;location;lat;lon;timestamp;temperature;humidity
18974;DHT22;9621;48.690;9.466;2023-06-24T00:02:10;11.80;95.30
18974;DHT22;9621;48.690;9.466;2023-06-24T00:04:38;11.80;95.30
18974;DHT22;9621;48.690;9.466;2023-06-24T00:07:05;11.80;95.50
18974;DHT22;9621;48.690;9.466;2023-06-24T00:09:32;11.80;95.60
18974;DHT22;9621;48.690;9.466;2023-06-24T00:12:01;11.70;96.10
18974;DHT22;9621;48.690;9.466;2023-06-24T00:14:28;11.70;96.30
18974;DHT22;9621;48.690;9.466;2023-06-24T00:16:55;11.70;96.30
18974;DHT22;9621;48.690;9.466;2023-06-24T00:19:24;11.60;96.50
18974;DHT22;9621;48.690;9.466;2023-06-24T00:21:52;11.60;96.70
18974;DHT22;9621;48.690;9.466;2023-06-24T00:24:19;11.50;96.70
18974;DHT22;9621;48.690;9.466;2023-06-24T00:26:51;11.60;96.80
18974;DHT22;9621;48.690;9.466;2023-06-24T00:29:19;11.50;96.90
18974;DHT22;9621;48.690;9.466;2023-06-24T00:31:46;11.50;97.20
18974;DHT22;9621;48.690;9.466;2023-06-24T00:34:13;11.40;97.10
18974;DHT22;9621;48.690;9.466;2023-06-24T00:36:40;11.40;97.30
18974;DHT22;9621;48.690;9.466;2023-06-24T00:39:06;11.30;97.60
18974;DHT22;9621;48.690;9.466;2023-06-24T00:41:35;11.30;97.70
18974;DHT22;9621;48.690;9.466;2023-06-24T00:44:02;11.30;97.80
18974;DHT22;9621;48.690;9.466;2023-06-24T00:46:30;11.20;98.00
18974;DHT22;9621;48.690;9.466;2023-06-24T00:48:59;11.20;98.50
18974;DHT22;9621;48.690;9.466;2023-06-24T00:51:28;11.20;98.70
18974;DHT22;9621;48.690;9.466;2023-06-24T00:53:57;11.10;98.90
18974;DHT22;9621;48.690;9.466;2023-06-24T00:56:27;11.10;99.00
18974;DHT22;9621;48.690;9.466;2023-06-24T00:58:54;11.10;99.60
18974;DHT22;9621;48.690;9.466;2023-06-24T01:01:22;11.10;99.50
18974;DHT22;9621;48.690;9.466;2023-06-24T01:03:51;11.00;99.70
18974;DHT22;9621;48.690;9.466;2023-06-24T01:06:17;11.00;99.90
18974;DHT22;9621;48.690;9.466;2023-06-24T01:08:45;10.90;99.90
18974;DHT22;9621;48.690;9.466;2023-06-24T01:11:16;10.90;99.90
18974;DHT22;9621;48.690;9.466;2023-06-24T01:13:43;10.90;99.90
18974;DHT22;9621;48.690;9.466;2023-06-24T01:16:18;10.80;99.90
18974;DHT22;9621;48.690;9.466;2023-06-24T01:18:49;10.80;99.90
18974;DHT22;9621;48.690;9.466;2023-06-24T01:21:31;10.80;99.90
18974;DHT22;9621;48.690;9.466;2023-06-24T01:24:21;10.70;99.90
18974;DHT22;9621;48.690;9.466;2023-06-24T01:27:11;10.70;99.90
18974;DHT22;9621;48.690;9.466;2023-06-24T01:29:57;10.60;99.90
18974;DHT22;9621;48.690;9.466;2023-06-24T01:32:34;10.60;99.90
18974;DHT22;9621;48.690;9.466;2023-06-24T01:35:08;10.60;99.90
18974;DHT22;9621;48.690;9.466;2023-06-24T01:37:41;10.50;99.90
18974;DHT22;9621;48.690;9.466;2023-06-24T01:40:11;10.50;99.90
18974;DHT22;9621;48.690;9.466;2023-06-24T01:42:40;10.50;99.90
18974;DHT22;9621;48.690;9.466;2023-06-24T01:45:12;10.50;99.90
18974;DHT22;9621;48.690;9.466;2023-06-24T01:47:47;10.50;99.90
18974;DHT22;9621;48.690;9.466;2023-06-24T01:50:16;10.40;99.90
18974;DHT22;9621;48.690;9.466;2023-06-24T01:52:46;10.30;99.90
18974;DHT22;9621;48.690;9.466;2023-06-24T01:55:19;10.40;99.90
18974;DHT22;9621;48.690;9.466;2023-06-24T01:57:48;10.40;99.90
18974;DHT22;9621;48.690;9.466;2023-06-24T02:00:17;10.30;99.90
18974;DHT22;9621;48.690;9.466;2023-06-24T02:02:46;10.30;99.90
18974;DHT22;9621;48.690;9.466;2023-06-24T02:05:13;10.30;99.90
18974;DHT22;9621;48.690;9.466;2023-06-24T02:07:42;10.30;99.90
18974;DHT22;9621;48.690;9.466;2023-06-24T02:10:10;10.30;99.90
18974;DHT22;9621;48.690;9.466;2023-06-24T02:12:37;10.20;99.90
18974;DHT22;9621;48.690;9.466;2023-06-24T02:15:07;10.20;99.90
18974;DHT22;9621;48.690;9.466;2023-06-24T02:17:35;10.20;99.90
18974;DHT22;9621;48.690;9.466;2023-06-24T02:20:06;10.20;99.90
18974;DHT22;9621;48.690;9.466;2023-06-24T02:22:36;10.10;99.90
18974;DHT22;9621;48.690;9.466;2023-06-24T02:25:06;10.10;99.90
18974;DHT22;9621;48.690;9.466;2023-06-24T02:27:34;10.00;99.90
18974;DHT22;9621;48.690;9.466;2023-06-24T02:30:02;10.00;99.90
18974;DHT22;9621;48.690;9.466;2023-06-24T02:32:29;10.00;99.90
18974;DHT22;9621;48.690;9.466;2023-06-24T02:34:57;10.00;99.90
18974;DHT22;9621;48.690;9.466;2023-06-24T02:37:25;9.90;99.90
18974;DHT22;9621;48.690;9.466;2023-06-24T02:39:52;9.90;99.90
18974;DHT22;9621;48.690;9.466;2023-06-24T02:42:19;9.90;99.90
18974;DHT22;9621;48.690;9.466;2023-06-24T02:44:46;9.90;99.90
18974;DHT22;9621;48.690;9.466;2023-06-24T02:47:15;9.80;99.90
18974;DHT22;9621;48.690;9.466;2023-06-24T02:49:44;9.80;99.90
18974;DHT22;9621;48.690;9.466;2023-06-24T02:52:13;9.80;99.90
18974;DHT22;9621;48.690;9.466;2023-06-24T02:54:42;9.80;99.90
18974;DHT22;9621;48.690;9.466;2023-06-24T02:57:09;9.70;99.90
18974;DHT22;9621;48.690;9.466;2023-06-24T02:59:36;9.70;99.90
18974;DHT22;9621;48.690;9.466;2023-06-24T03:02:04;9.70;99.90
18974;DHT22;9621;48.690;9.466;2023-06-24T03:04:32;9.70;99.90
18974;DHT22;9621;48.690;9.466;2023-06-24T03:06:59;9.60;99.90
18974;DHT22;9621;48.690;9.466;2023-06-24T03:09:28;9.60;99.90
18974;DHT22;9621;48.690;9.466;2023-06-24T03:11:56;9.50;99.90
18974;DHT22;9621;48.690;9.466;2023-06-24T03:14:23;9.50;99.90
18974;DHT22;9621;48.690;9.466;2023-06-24T03:16:50;9.50;99.90
18974;DHT22;9621;48.690;9.466;2023-06-24T03:19:17;9.50;99.90
18974;DHT22;9621;48.690;9.466;2023-06-24T03:21:44;9.50;99.90
18974;DHT22;9621;48.690;9.466;2023-06-24T03:24:11;9.50;99.90
18974;DHT22;9621;48.690;9.466;2023-06-24T03:26:38;9.40;99.90
18974;DHT22;9621;48.690;9.466;2023-06-24T03:29:07;9.40;99.90
18974;DHT22;9621;48.690;9.466;2023-06-24T03:31:34;9.50;99.90
18974;DHT22;9621;48.690;9.466;2023-06-24T03:34:01;9.50;99.90
18974;DHT22;9621;48.690;9.466;2023-06-24T03:36:28;9.50;99.90
18974;DHT22;9621;48.690;9.466;2023-06-24T03:38:54;9.50;99.90
18974;DHT22;9621;48.690;9.466;2023-06-24T03:41:21;9.50;99.90
18974;DHT22;9621;48.690;9.466;2023-06-24T03:43:48;9.50;99.90
18974;DHT22;9621;48.690;9.466;2023-06-24T03:46:17;9.50;99.90
18974;DHT22;9621;48.690;9.466;2023-06-24T03:48:44;9.50;99.90
18974;DHT22;9621;48.690;9.466;2023-06-24T03:51:11;9.60;99.90
18974;DHT22;9621;48.690;9.466;2023-06-24T03:53:37;9.60;99.90
18974;DHT22;9621;48.690;9.466;2023-06-24T03:56:04;9.70;99.90
18974;DHT22;9621;48.690;9.466;2023-06-24T03:58:31;9.80;99.90
18974;DHT22;9621;48.690;9.466;2023-06-24T04:00:59;10.00;99.90
18974;DHT22;9621;48.690;9.466;2023-06-24T04:03:28;10.20;99.90
18974;DHT22;9621;48.690;9.466;2023-06-24T04:05:55;10.50;99.90
18974;DHT22;9621;48.690;9.466;2023-06-24T04:08:22;10.70;99.90
18974;DHT22;9621;48.690;9.466;2023-06-24T04:10:51;10.90;99.90
18974;DHT22;9621;48.690;9.466;2023-06-24T04:13:18;11.20;99.90
18974;DHT22;9621;48.690;9.466;2023-06-24T04:15:44;11.40;99.90
18974;DHT22;9621;48.690;9.466;2023-06-24T04:18:11;11.60;99.90
18974;DHT22;9621;48.690;9.466;2023-06-24T04:20:39;11.80;99.90
18974;DHT22;9621;48.690;9.466;2023-06-24T04:23:06;12.00;99.90
18974;DHT22;9621;48.690;9.466;2023-06-24T04:25:35;12.20;99.90
18974;DHT22;9621;48.690;9.466;2023-06-24T04:28:02;12.40;99.90
18974;DHT22;9621;48.690;9.466;2023-06-24T04:30:30;12.60;99.90
18974;DHT22;9621;48.690;9.466;2023-06-24T04:32:57;12.80;99.90
18974;DHT22;9621;48.690;9.466;2023-06-24T04:35:24;13.10;99.90
18974;DHT22;9621;48.690;9.466;2023-06-24T04:37:52;13.30;99.90
18974;DHT22;9621;48.690;9.466;2023-06-24T04:40:19;13.60;99.90
18974;DHT22;9621;48.690;9.466;2023-06-24T04:42:46;13.90;99.90
18974;DHT22;9621;48.690;9.466;2023-06-24T04:45:13;14.10;99.90
18974;DHT22;9621;48.690;9.466;2023-06-24T04:47:40;14.40;99.90
18974;DHT22;9621;48.690;9.466;2023-06-24T04:50:08;14.60;99.90
18974;DHT22;9621;48.690;9.466;2023-06-24T04:52:36;14.90;99.90
18974;DHT22;9621;48.690;9.466;2023-06-24T04:55:05;15.20;99.90
18974;DHT22;9621;48.690;9.466;2023-06-24T04:57:33;15.50;99.90
18974;DHT22;9621;48.690;9.466;2023-06-24T05:00:00;15.80;99.90
18974;DHT22;9621;48.690;9.466;2023-06-24T05:02:27;16.10;99.90
18974;DHT22;9621;48.690;9.466;2023-06-24T05:04:54;16.40;99.90
18974;DHT22;9621;48.690;9.466;2023-06-24T05:07:20;16.70;99.90
18974;DHT22;9621;48.690;9.466;2023-06-24T05:09:48;17.10;99.90
18974;DHT22;9621;48.690;9.466;2023-06-24T05:12:18;17.30;99.90
18974;DHT22;9621;48.690;9.466;2023-06-24T05:14:49;17.50;99.90
18974;DHT22;9621;48.690;9.466;2023-06-24T05:17:17;17.70;99.90
18974;DHT22;9621;48.690;9.466;2023-06-24T05:19:44;17.80;99.90
18974;DHT22;9621;48.690;9.466;2023-06-24T05:22:11;17.90;99.90
18974;DHT22;9621;48.690;9.466;2023-06-24T05:24:37;18.00;99.80
18974;DHT22;9621;48.690;9.466;2023-06-24T05:27:06;18.10;99.40
18974;DHT22;9621;48.690;9.466;2023-06-24T05:29:35;18.10;99.10
18974;DHT22;9621;48.690;9.466;2023-06-24T05:32:02;18.10;98.80
18974;DHT22;9621;48.690;9.466;2023-06-24T05:34:29;18.10;98.90
18974;DHT22;9621;48.690;9.466;2023-06-24T05:36:56;18.20;99.20
18974;DHT22;9621;48.690;9.466;2023-06-24T05:39:23;18.40;98.80
18974;DHT22;9621;48.690;9.466;2023-06-24T05:41:50;18.70;98.80
18974;DHT22;9621;48.690;9.466;2023-06-24T05:44:17;18.90;98.60
18974;DHT22;9621;48.690;9.466;2023-06-24T05:46:45;19.20;98.30
18974;DHT22;9621;48.690;9.466;2023-06-24T05:49:12;19.60;97.30
18974;DHT22;9621;48.690;9.466;2023-06-24T05:51:39;20.00;97.00
18974;DHT22;9621;48.690;9.466;2023-06-24T05:54:06;20.30;96.50
18974;DHT22;9621;48.690;9.466;2023-06-24T05:56:34;20.50;96.50
18974;DHT22;9621;48.690;9.466;2023-06-24T05:59:01;20.80;95.50
18974;DHT22;9621;48.690;9.466;2023-06-24T06:01:29;21.10;94.80
18974;DHT22;9621;48.690;9.466;2023-06-24T06:03:57;21.30;94.30
18974;DHT22;9621;48.690;9.466;2023-06-24T06:06:24;21.50;93.60
18974;DHT22;9621;48.690;9.466;2023-06-24T06:08:51;21.80;93.50
18974;DHT22;9621;48.690;9.466;2023-06-24T06:11:18;22.00;93.10
18974;DHT22;9621;48.690;9.466;2023-06-24T06:13:45;22.10;92.60
18974;DHT22;9621;48.690;9.466;2023-06-24T06:16:11;22.40;92.10
18974;DHT22;9621;48.690;9.466;2023-06-24T06:18:39;22.50;91.70
18974;DHT22;9621;48.690;9.466;2023-06-24T06:21:07;22.80;91.40
18974;DHT22;9621;48.690;9.466;2023-06-24T06:23:34;23.00;90.40
18974;DHT22;9621;48.690;9.466;2023-06-24T06:26:01;23.20;90.10
18974;DHT22;9621;48.690;9.466;2023-06-24T06:28:28;23.40;89.30
18974;DHT22;9621;48.690;9.466;2023-06-24T06:30:55;23.60;88.90
18974;DHT22;9621;48.690;9.466;2023-06-24T06:33:23;23.80;88.20
18974;DHT22;9621;48.690;9.466;2023-06-24T06:35:50;24.00;87.50
18974;DHT22;9621;48.690;9.466;2023-06-24T06:38:18;24.20;86.60
18974;DHT22;9621;48.690;9.466;2023-06-24T06:40:45;24.50;84.80
18974;DHT22;9621;48.690;9.466;2023-06-24T06:43:11;24.70;84.30
18974;DHT22;9621;48.690;9.466;2023-06-24T06:45:38;24.90;82.40
18974;DHT22;9621;48.690;9.466;2023-06-24T06:48:05;25.10;80.10
18974;DHT22;9621;48.690;9.466;2023-06-24T06:50:33;25.10;79.90
18974;DHT22;9621;48.690;9.466;2023-06-24T06:53:00;25.10;79.20
18974;DHT22;9621;48.690;9.466;2023-06-24T06:55:28;25.20;79.70
18974;DHT22;9621;48.690;9.466;2023-06-24T06:57:55;25.30;78.00
18974;DHT22;9621;48.690;9.466;2023-06-24T07:00:22;25.50;78.30
18974;DHT22;9621;48.690;9.466;2023-06-24T07:02:49;25.70;78.10
18974;DHT22;9621;48.690;9.466;2023-06-24T07:05:16;26.00;77.40
18974;DHT22;9621;48.690;9.466;2023-06-24T07:07:43;26.20;76.90
18974;DHT22;9621;48.690;9.466;2023-06-24T07:10:11;26.40;76.00
18974;DHT22;9621;48.690;9.466;2023-06-24T07:12:39;26.60;74.50
18974;DHT22;9621;48.690;9.466;2023-06-24T07:15:07;26.80;73.40
18974;DHT22;9621;48.690;9.466;2023-06-24T07:17:34;26.90;73.40
18974;DHT22;9621;48.690;9.466;2023-06-24T07:20:01;27.00;71.40
18974;DHT22;9621;48.690;9.466;2023-06-24T07:22:28;27.20;70.80
18974;DHT22;9621;48.690;9.466;2023-06-24T07:24:56;27.30;70.50
18974;DHT22;9621;48.690;9.466;2023-06-24T07:27:23;27.50;70.10
18974;DHT22;9621;48.690;9.466;2023-06-24T07:29:51;27.80;69.60
18974;DHT22;9621;48.690;9.466;2023-06-24T07:32:18;28.00;68.20
18974;DHT22;9621;48.690;9.466;2023-06-24T07:34:44;28.30;67.10
18974;DHT22;9621;48.690;9.466;2023-06-24T07:37:11;28.50;66.40
18974;DHT22;9621;48.690;9.466;2023-06-24T07:39:38;28.70;65.80
18974;DHT22;9621;48.690;9.466;2023-06-24T07:42:05;28.90;64.70
18974;DHT22;9621;48.690;9.466;2023-06-24T07:44:32;29.10;63.50
18974;DHT22;9621;48.690;9.466;2023-06-24T07:47:00;29.30;62.40
18974;DHT22;9621;48.690;9.466;2023-06-24T07:49:27;29.50;60.00
18974;DHT22;9621;48.690;9.466;2023-06-24T07:51:54;29.50;59.40
18974;DHT22;9621;48.690;9.466;2023-06-24T07:54:21;29.40;58.30
18974;DHT22;9621;48.690;9.466;2023-06-24T07:56:48;29.30;58.90
18974;DHT22;9621;48.690;9.466;2023-06-24T07:59:15;29.20;58.70
18974;DHT22;9621;48.690;9.466;2023-06-24T08:01:42;29.20;58.20
18974;DHT22;9621;48.690;9.466;2023-06-24T08:04:10;29.20;56.60
18974;DHT22;9621;48.690;9.466;2023-06-24T08:06:37;29.10;56.60
18974;DHT22;9621;48.690;9.466;2023-06-24T08:09:04;29.00;57.30
18974;DHT22;9621;48.690;9.466;2023-06-24T08:11:30;29.00;57.20
18974;DHT22;9621;48.690;9.466;2023-06-24T08:13:57;29.20;57.20
18974;DHT22;9621;48.690;9.466;2023-06-24T08:16:24;29.30;56.50
18974;DHT22;9621;48.690;9.466;2023-06-24T08:18:51;29.40;56.50
18974;DHT22;9621;48.690;9.466;2023-06-24T08:21:20;29.60;56.30
18974;DHT22;9621;48.690;9.466;2023-06-24T08:23:47;29.80;55.10
18974;DHT22;9621;48.690;9.466;2023-06-24T08:26:15;29.90;55.20
18974;DHT22;9621;48.690;9.466;2023-06-24T08:28:42;30.00;53.50
18974;DHT22;9621;48.690;9.466;2023-06-24T08:31:09;30.00;52.10
18974;DHT22;9621;48.690;9.466;2023-06-24T08:33:35;29.80;51.40
18974;DHT22;9621;48.690;9.466;2023-06-24T08:36:02;29.50;52.60
18974;DHT22;9621;48.690;9.466;2023-06-24T08:38:31;29.40;53.70
18974;DHT22;9621;48.690;9.466;2023-06-24T08:40:58;29.40;53.80
18974;DHT22;9621;48.690;9.466;2023-06-24T08:43:25;29.50;54.40
18974;DHT22;9621;48.690;9.466;2023-06-24T08:45:52;29.80;54.10
18974;DHT22;9621;48.690;9.466;2023-06-24T08:48:20;30.10;53.20
18974;DHT22;9621;48.690;9.466;2023-06-24T08:50:51;30.30;51.20
18974;DHT22;9621;48.690;9.466;2023-06-24T08:53:20;30.30;50.40
18974;DHT22;9621;48.690;9.466;2023-06-24T08:55:49;30.40;51.40
18974;DHT22;9621;48.690;9.466;2023-06-24T08:58:18;30.50;51.50
18974;DHT22;9621;48.690;9.466;2023-06-24T09:00:45;30.70;51.50
18974;DHT22;9621;48.690;9.466;2023-06-24T09:03:17;30.90;51.20
18974;DHT22;9621;48.690;9.466;2023-06-24T09:05:44;31.10;50.50
18974;DHT22;9621;48.690;9.466;2023-06-24T09:08:11;31.30;49.40
18974;DHT22;9621;48.690;9.466;2023-06-24T09:10:38;31.50;49.70
18974;DHT22;9621;48.690;9.466;2023-06-24T09:13:07;31.60;48.60
18974;DHT22;9621;48.690;9.466;2023-06-24T09:15:34;31.70;47.90
18974;DHT22;9621;48.690;9.466;2023-06-24T09:18:01;31.80;46.50
18974;DHT22;9621;48.690;9.466;2023-06-24T09:20:29;31.60;45.30
18974;DHT22;9621;48.690;9.466;2023-06-24T09:22:58;31.50;45.30
18974;DHT22;9621;48.690;9.466;2023-06-24T09:25:26;31.30;46.00
18974;DHT22;9621;48.690;9.466;2023-06-24T09:27:53;31.20;45.60
18974;DHT22;9621;48.690;9.466;2023-06-24T09:30:23;31.20;46.70
18974;DHT22;9621;48.690;9.466;2023-06-24T09:32:51;31.20;46.80
18974;DHT22;9621;48.690;9.466;2023-06-24T09:35:19;31.50;47.50
18974;DHT22;9621;48.690;9.466;2023-06-24T09:37:50;31.80;46.10
18974;DHT22;9621;48.690;9.466;2023-06-24T09:40:17;32.00;43.90
18974;DHT22;9621;48.690;9.466;2023-06-24T09:42:55;32.10;43.70
18974;DHT22;9621;48.690;9.466;2023-06-24T09:45:25;32.10;43.50
18974;DHT22;9621;48.690;9.466;2023-06-24T09:47:53;32.00;44.40
18974;DHT22;9621;48.690;9.466;2023-06-24T09:50:20;32.00;44.60
18974;DHT22;9621;48.690;9.466;2023-06-24T09:52:49;32.10;44.40
18974;DHT22;9621;48.690;9.466;2023-06-24T09:55:17;32.10;44.20
18974;DHT22;9621;48.690;9.466;2023-06-24T09:57:47;32.10;43.60
18974;DHT22;9621;48.690;9.466;2023-06-24T10:00:19;32.00;43.60
18974;DHT22;9621;48.690;9.466;2023-06-24T10:02:48;31.90;42.90
18974;DHT22;9621;48.690;9.466;2023-06-24T10:05:15;31.80;43.10
18974;DHT22;9621;48.690;9.466;2023-06-24T10:07:43;31.70;43.20
18974;DHT22;9621;48.690;9.466;2023-06-24T10:10:10;31.60;42.50
18974;DHT22;9621;48.690;9.466;2023-06-24T10:12:37;31.60;43.20
18974;DHT22;9621;48.690;9.466;2023-06-24T10:15:06;31.50;42.30
18974;DHT22;9621;48.690;9.466;2023-06-24T10:17:33;31.40;42.50
18974;DHT22;9621;48.690;9.466;2023-06-24T10:20:04;31.20;42.70
18974;DHT22;9621;48.690;9.466;2023-06-24T10:22:31;31.00;42.40
18974;DHT22;9621;48.690;9.466;2023-06-24T10:25:00;30.70;42.50
18974;DHT22;9621;48.690;9.466;2023-06-24T10:27:28;30.40;42.10
18974;DHT22;9621;48.690;9.466;2023-06-24T10:30:02;30.10;42.70
18974;DHT22;9621;48.690;9.466;2023-06-24T10:32:40;29.90;42.80
18974;DHT22;9621;48.690;9.466;2023-06-24T10:35:21;30.00;42.80
18974;DHT22;9621;48.690;9.466;2023-06-24T10:37:54;30.10;41.50
18974;DHT22;9621;48.690;9.466;2023-06-24T10:40:34;30.10;41.00
18974;DHT22;9621;48.690;9.466;2023-06-24T10:43:04;30.10;41.10
18974;DHT22;9621;48.690;9.466;2023-06-24T10:45:49;30.20;41.10
18974;DHT22;9621;48.690;9.466;2023-06-24T10:48:16;30.10;40.10
18974;DHT22;9621;48.690;9.466;2023-06-24T10:50:46;30.20;41.90
18974;DHT22;9621;48.690;9.466;2023-06-24T10:53:13;30.20;42.10
18974;DHT22;9621;48.690;9.466;2023-06-24T10:55:40;30.50;41.70
18974;DHT22;9621;48.690;9.466;2023-06-24T10:58:08;30.60;42.50
18974;DHT22;9621;48.690;9.466;2023-06-24T11:00:37;30.60;41.40
18974;DHT22;9621;48.690;9.466;2023-06-24T11:03:08;30.70;40.50
18974;DHT22;9621;48.690;9.466;2023-06-24T11:05:39;30.70;39.80
18974;DHT22;9621;48.690;9.466;2023-06-24T11:08:08;30.70;39.90
18974;DHT22;9621;48.690;9.466;2023-06-24T11:10:42;30.70;39.80
18974;DHT22;9621;48.690;9.466;2023-06-24T11:13:10;30.90;39.40
18974;DHT22;9621;48.690;9.466;2023-06-24T11:15:38;31.10;40.70
18974;DHT22;9621;48.690;9.466;2023-06-24T11:18:08;31.20;40.50
18974;DHT22;9621;48.690;9.466;2023-06-24T11:20:36;31.20;39.00
18974;DHT22;9621;48.690;9.466;2023-06-24T11:23:08;31.20;39.50
18974;DHT22;9621;48.690;9.466;2023-06-24T11:25:39;30.80;38.10
18974;DHT22;9621;48.690;9.466;2023-06-24T11:28:13;30.50;39.10
18974;DHT22;9621;48.690;9.466;2023-06-24T11:30:40;30.30;39.60
18974;DHT22;9621;48.690;9.466;2023-06-24T11:33:07;30.20;39.50
18974;DHT22;9621;48.690;9.466;2023-06-24T11:35:34;30.10;39.90
18974;DHT22;9621;48.690;9.466;2023-06-24T11:38:03;30.10;40.10
18974;DHT22;9621;48.690;9.466;2023-06-24T11:40:32;30.20;39.50
18974;DHT22;9621;48.690;9.466;2023-06-24T11:43:00;30.40;39.20
18974;DHT22;9621;48.690;9.466;2023-06-24T11:45:27;30.40;39.40
18974;DHT22;9621;48.690;9.466;2023-06-24T11:48:02;30.50;38.60
18974;DHT22;9621;48.690;9.466;2023-06-24T11:50:31;30.50;38.10
18974;DHT22;9621;48.690;9.466;2023-06-24T11:52:58;30.60;38.50
18974;DHT22;9621;48.690;9.466;2023-06-24T11:55:25;30.60;38.10
18974;DHT22;9621;48.690;9.466;2023-06-24T11:57:59;30.70;38.50
18974;DHT22;9621;48.690;9.466;2023-06-24T12:00:28;30.80;38.20
18974;DHT22;9621;48.690;9.466;2023-06-24T12:02:56;30.90;39.30
18974;DHT22;9621;48.690;9.466;2023-06-24T12:05:24;31.10;38.30
18974;DHT22;9621;48.690;9.466;2023-06-24T12:08:01;31.30;38.10
18974;DHT22;9621;48.690;9.466;2023-06-24T12:10:29;31.30;37.80
18974;DHT22;9621;48.690;9.466;2023-06-24T12:13:00;31.40;38.90
18974;DHT22;9621;48.690;9.466;2023-06-24T12:15:27;31.50;38.10
18974;DHT22;9621;48.690;9.466;2023-06-24T12:17:54;31.50;37.50
18974;DHT22;9621;48.690;9.466;2023-06-24T12:20:21;31.30;37.90
18974;DHT22;9621;48.690;9.466;2023-06-24T12:22:48;31.20;37.40
18974;DHT22;9621;48.690;9.466;2023-06-24T12:25:16;31.10;37.80
18974;DHT22;9621;48.690;9.466;2023-06-24T12:27:44;31.00;38.10
18974;DHT22;9621;48.690;9.466;2023-06-24T12:30:13;31.00;38.20
18974;DHT22;9621;48.690;9.466;2023-06-24T12:32:40;30.90;38.00
18974;DHT22;9621;48.690;9.466;2023-06-24T12:35:08;30.80;37.70
18974;DHT22;9621;48.690;9.466;2023-06-24T12:37:36;30.70;37.40
18974;DHT22;9621;48.690;9.466;2023-06-24T12:40:04;30.50;37.30
18974;DHT22;9621;48.690;9.466;2023-06-24T12:42:31;30.40;37.90
18974;DHT22;9621;48.690;9.466;2023-06-24T12:44:59;30.50;39.70
18974;DHT22;9621;48.690;9.466;2023-06-24T12:47:27;30.60;38.70
18974;DHT22;9621;48.690;9.466;2023-06-24T12:49:54;30.70;39.10
18974;DHT22;9621;48.690;9.466;2023-06-24T12:52:21;30.80;38.30
18974;DHT22;9621;48.690;9.466;2023-06-24T12:54:48;30.80;38.80
18974;DHT22;9621;48.690;9.466;2023-06-24T12:57:15;30.90;38.10
18974;DHT22;9621;48.690;9.466;2023-06-24T12:59:42;30.90;38.50
18974;DHT22;9621;48.690;9.466;2023-06-24T13:02:09;31.10;38.00
18974;DHT22;9621;48.690;9.466;2023-06-24T13:04:38;31.10;37.40
18974;DHT22;9621;48.690;9.466;2023-06-24T13:07:05;31.00;37.10
18974;DHT22;9621;48.690;9.466;2023-06-24T13:09:32;30.80;38.30
18974;DHT22;9621;48.690;9.466;2023-06-24T13:11:59;30.80;38.30
18974;DHT22;9621;48.690;9.466;2023-06-24T13:14:26;30.80;37.90
18974;DHT22;9621;48.690;9.466;2023-06-24T13:16:54;30.80;38.00
18974;DHT22;9621;48.690;9.466;2023-06-24T13:19:21;30.90;38.80
18974;DHT22;9621;48.690;9.466;2023-06-24T13:21:49;31.00;39.50
18974;DHT22;9621;48.690;9.466;2023-06-24T13:24:16;31.20;39.30
18974;DHT22;9621;48.690;9.466;2023-06-24T13:26:43;31.60;39.00
18974;DHT22;9621;48.690;9.466;2023-06-24T13:29:10;31.80;38.90
18974;DHT22;9621;48.690;9.466;2023-06-24T13:31:37;32.10;38.00
18974;DHT22;9621;48.690;9.466;2023-06-24T13:34:03;32.20;36.90
18974;DHT22;9621;48.690;9.466;2023-06-24T13:36:32;32.30;36.80
18974;DHT22;9621;48.690;9.466;2023-06-24T13:39:02;32.30;36.20
18974;DHT22;9621;48.690;9.466;2023-06-24T13:41:30;32.00;35.90
18974;DHT22;9621;48.690;9.466;2023-06-24T13:43:58;31.70;36.10
18974;DHT22;9621;48.690;9.466;2023-06-24T13:46:25;31.40;36.40
18974;DHT22;9621;48.690;9.466;2023-06-24T13:48:52;31.10;36.40
18974;DHT22;9621;48.690;9.466;2023-06-24T13:51:20;30.50;36.80
18974;DHT22;9621;48.690;9.466;2023-06-24T13:53:48;30.10;37.50
18974;DHT22;9621;48.690;9.466;2023-06-24T13:56:17;29.70;37.40
18974;DHT22;9621;48.690;9.466;2023-06-24T13:58:44;29.30;38.00
18974;DHT22;9621;48.690;9.466;2023-06-24T14:01:11;29.00;38.50
18974;DHT22;9621;48.690;9.466;2023-06-24T14:03:38;28.80;39.30
18974;DHT22;9621;48.690;9.466;2023-06-24T14:06:05;28.60;39.50
18974;DHT22;9621;48.690;9.466;2023-06-24T14:08:33;28.50;40.10
18974;DHT22;9621;48.690;9.466;2023-06-24T14:11:00;28.70;40.60
18974;DHT22;9621;48.690;9.466;2023-06-24T14:13:29;28.90;40.30
18974;DHT22;9621;48.690;9.466;2023-06-24T14:15:56;29.20;40.00
18974;DHT22;9621;48.690;9.466;2023-06-24T14:18:23;29.40;39.40
18974;DHT22;9621;48.690;9.466;2023-06-24T14:20:51;29.80;38.90
18974;DHT22;9621;48.690;9.466;2023-06-24T14:23:18;30.10;38.90
18974;DHT22;9621;48.690;9.466;2023-06-24T14:25:45;30.40;39.00
18974;DHT22;9621;48.690;9.466;2023-06-24T14:28:11;30.70;38.60
18974;DHT22;9621;48.690;9.466;2023-06-24T14:30:40;31.00;38.10
18974;DHT22;9621;48.690;9.466;2023-06-24T14:33:08;31.20;37.50
18974;DHT22;9621;48.690;9.466;2023-06-24T14:35:35;31.50;37.30
18974;DHT22;9621;48.690;9.466;2023-06-24T14:38:02;31.60;37.20
18974;DHT22;9621;48.690;9.466;2023-06-24T14:40:28;31.70;36.80
18974;DHT22;9621;48.690;9.466;2023-06-24T14:42:55;31.80;36.50
18974;DHT22;9621;48.690;9.466;2023-06-24T14:45:22;31.90;36.10
18974;DHT22;9621;48.690;9.466;2023-06-24T14:47:50;32.00;36.50
18974;DHT22;9621;48.690;9.466;2023-06-24T14:50:17;32.10;36.20
18974;DHT22;9621;48.690;9.466;2023-06-24T14:52:44;32.20;36.60
18974;DHT22;9621;48.690;9.466;2023-06-24T14:55:11;32.40;36.10
18974;DHT22;9621;48.690;9.466;2023-06-24T14:57:38;32.60;35.90
18974;DHT22;9621;48.690;9.466;2023-06-24T15:00:06;32.80;36.10
18974;DHT22;9621;48.690;9.466;2023-06-24T15:02:33;33.00;35.60
18974;DHT22;9621;48.690;9.466;2023-06-24T15:05:02;33.10;35.00
18974;DHT22;9621;48.690;9.466;2023-06-24T15:07:29;33.10;34.80
18974;DHT22;9621;48.690;9.466;2023-06-24T15:09:56;32.90;34.60
18974;DHT22;9621;48.690;9.466;2023-06-24T15:12:23;32.70;34.60
18974;DHT22;9621;48.690;9.466;2023-06-24T15:14:50;32.50;34.40
18974;DHT22;9621;48.690;9.466;2023-06-24T15:17:17;32.10;34.30
18974;DHT22;9621;48.690;9.466;2023-06-24T15:19:44;31.70;34.50
18974;DHT22;9621;48.690;9.466;2023-06-24T15:22:12;31.20;34.60
18974;DHT22;9621;48.690;9.466;2023-06-24T15:24:39;30.60;35.10
18974;DHT22;9621;48.690;9.466;2023-06-24T15:27:06;30.20;35.80
18974;DHT22;9621;48.690;9.466;2023-06-24T15:29:33;29.70;36.50
18974;DHT22;9621;48.690;9.466;2023-06-24T15:32:00;29.40;37.20
18974;DHT22;9621;48.690;9.466;2023-06-24T15:34:27;29.30;37.60
18974;DHT22;9621;48.690;9.466;2023-06-24T15:36:54;29.20;37.90
18974;DHT22;9621;48.690;9.466;2023-06-24T15:39:22;29.30;38.20
18974;DHT22;9621;48.690;9.466;2023-06-24T15:41:49;29.50;38.30
18974;DHT22;9621;48.690;9.466;2023-06-24T15:44:17;29.70;38.10
18974;DHT22;9621;48.690;9.466;2023-06-24T15:46:44;30.00;38.10
18974;DHT22;9621;48.690;9.466;2023-06-24T15:49:12;30.20;38.00
18974;DHT22;9621;48.690;9.466;2023-06-24T15:51:39;30.50;37.30
18974;DHT22;9621;48.690;9.466;2023-06-24T15:54:06;30.70;37.20